Brownsville South Padre Island International Airport
KBRO : now visible

Airfield :











YOU CAN JOIN US ON...

 
LOGIN :

Register | Disclaimer

   EN    FR    IT 

 









Legend :    VFR   Marginal VFR   IFR   Intensive IFR   Very Intensive IFR
Visi :
Ceiling :
>= 8 km
>= 3000ft
5 to 8 km
1000 to 3000 ft
1500m to 5 km
500 to 1000 ft
800 to 1500m
200 to 500 ft
< 800m
< 200 ft
Symbols :   Thunderstorms  Fog  Heavy snow  Heavy precipitations  Wind > 20 kt






- Airport Elevation : 22 ft
- IATA code : BRO


KBRO - Brownsville South Padre Island International

CURRENT METAR :
  • 231153Z 34005KT 10SM CLR 22/19 A2988 RMK AO2 SLP118 60000 T02170194 10256 20217 55005 $

EXPIRED METARs :
  • 231053Z 01005KT 10SM CLR 22/20 A2988 RMK AO2 SLP115 T02170200 $
  • 230953Z AUTO 18006KT 10SM CLR 23/20 A2988 RMK AO2 SLP117 T02330200 $
  • 230853Z AUTO 19009KT 10SM SCT110 23/18 A2990 RMK AO2 SLP123 60000 T02330183 56019 $

TAF KBRO
Valid from the 23 at 12:00 until the 24 at 12:00 UTC


231120Z 2312/2412 VRB02KT P6SM FEW250
FM231400 14012G17KT P6SM BKN050
FM240000 16007KT P6SM FEW020
KZHU FIR / North America



MET'MAP, your aeronautical weather chart ! - Copyright ORBIFLY December 2007 - Disclaimer

ORBIFLY MET'MAP TEAM :

Programming & Development : Alexandra Zaïnal
Concept & original design : Baudouin d'Aumeries
Assistance for programming : Marc-Olivier Méhu
Technical & hardware support : Manuel Goepfert

Contact : metmap@orbifly.com




SOURCES & CREDITS :

   NOAA       Earth
Advisory